createdAt,value
2017-06-17T00:01:23.762Z,76.60
2017-06-17T00:03:50.212Z,76.40
2017-06-17T00:06:16.682Z,75.70
2017-06-17T00:08:43.086Z,76.00
2017-06-17T00:11:09.515Z,75.50
2017-06-17T00:13:36.348Z,75.20
2017-06-17T00:16:02.860Z,75.30
2017-06-17T00:18:29.239Z,75.30
2017-06-17T00:20:56.408Z,75.50
2017-06-17T00:23:22.811Z,77.10
2017-06-17T00:25:49.237Z,77.30
2017-06-17T00:28:15.668Z,78.60
2017-06-17T00:30:42.107Z,76.30
2017-06-17T00:33:08.534Z,76.60
2017-06-17T00:35:35.009Z,78.10
2017-06-17T00:38:01.403Z,77.90
2017-06-17T00:40:27.816Z,78.20
2017-06-17T00:42:54.374Z,78.70
2017-06-17T00:45:20.837Z,78.80
2017-06-17T00:47:47.301Z,79.30
2017-06-17T00:50:13.773Z,78.80
2017-06-17T00:52:40.173Z,79.40
2017-06-17T00:55:06.609Z,80.10
2017-06-17T00:57:33.482Z,79.60
2017-06-17T00:59:59.921Z,80.10
2017-06-17T01:02:26.366Z,80.10
2017-06-17T01:04:52.827Z,77.30
2017-06-17T01:07:19.329Z,77.70
2017-06-17T01:09:45.713Z,78.20
2017-06-17T01:12:12.218Z,78.90
2017-06-17T01:14:39.403Z,78.80
2017-06-17T01:17:06.927Z,79.50
2017-06-17T01:19:34.312Z,77.80
2017-06-17T01:22:01.721Z,78.30
2017-06-17T01:24:28.157Z,78.50
2017-06-17T01:26:55.350Z,78.40
2017-06-17T01:29:21.790Z,77.70
2017-06-17T01:31:48.240Z,79.10
2017-06-17T01:34:14.691Z,77.20
2017-06-17T01:36:41.213Z,77.40
2017-06-17T01:39:07.613Z,77.20
2017-06-17T01:41:34.092Z,76.80
2017-06-17T01:44:00.559Z,77.20
2017-06-17T01:46:27.168Z,77.50
2017-06-17T01:48:53.606Z,76.00
2017-06-17T01:51:20.034Z,76.80
2017-06-17T01:53:46.468Z,77.10
2017-06-17T01:56:13.042Z,77.40
2017-06-17T01:58:39.442Z,78.40
2017-06-17T02:01:06.058Z,77.80
2017-06-17T02:03:32.553Z,77.80
2017-06-17T02:05:59.016Z,78.30
2017-06-17T02:08:25.423Z,76.10
2017-06-17T02:10:51.860Z,76.90
2017-06-17T02:13:18.287Z,76.90
2017-06-17T02:15:44.800Z,76.40
2017-06-17T02:18:11.314Z,76.60
2017-06-17T02:20:37.749Z,76.40
2017-06-17T02:23:04.162Z,75.70
2017-06-17T02:25:30.618Z,75.10
2017-06-17T02:27:57.973Z,75.10
2017-06-17T02:30:25.420Z,75.00
2017-06-17T02:32:51.848Z,74.90
2017-06-17T02:35:18.591Z,74.80
2017-06-17T02:37:45.070Z,74.80
2017-06-17T02:40:11.832Z,74.60
2017-06-17T02:42:38.286Z,74.70
2017-06-17T02:45:04.849Z,74.60
2017-06-17T02:47:32.072Z,74.50
2017-06-17T02:49:59.457Z,74.50
2017-06-17T02:52:26.687Z,75.80
2017-06-17T02:54:53.165Z,75.80
2017-06-17T02:57:19.615Z,76.00
2017-06-17T02:59:46.042Z,76.40
2017-06-17T03:02:12.616Z,77.50
2017-06-17T03:04:39.043Z,76.80
2017-06-17T03:07:05.468Z,77.40
2017-06-17T03:09:32.824Z,77.50
2017-06-17T03:12:00.093Z,77.30
2017-06-17T03:14:26.711Z,77.10
2017-06-17T03:16:53.157Z,78.00
2017-06-17T03:19:19.580Z,77.40
2017-06-17T03:21:45.983Z,77.50
2017-06-17T03:24:12.526Z,77.20
2017-06-17T03:26:38.947Z,77.00
2017-06-17T03:29:05.337Z,77.60
2017-06-17T03:31:31.798Z,78.20
2017-06-17T03:33:58.382Z,77.50
2017-06-17T03:36:24.814Z,76.80
2017-06-17T03:38:51.294Z,77.00
2017-06-17T03:41:17.748Z,76.90
2017-06-17T03:43:44.176Z,77.50
2017-06-17T03:46:10.650Z,77.40
2017-06-17T03:48:42.360Z,77.50
2017-06-17T03:51:08.802Z,77.30
2017-06-17T03:53:35.347Z,77.80
2017-06-17T03:56:01.852Z,76.50
2017-06-17T03:58:28.309Z,75.60
2017-06-17T04:00:54.747Z,74.90
2017-06-17T04:03:21.291Z,75.00
2017-06-17T04:05:47.722Z,73.70
2017-06-17T04:08:14.228Z,73.00
2017-06-17T04:10:40.741Z,72.90
2017-06-17T04:13:07.889Z,71.50
2017-06-17T04:15:35.194Z,71.00
2017-06-17T04:18:01.602Z,71.00
2017-06-17T04:20:28.020Z,70.20
2017-06-17T04:22:55.194Z,70.80
2017-06-17T04:25:21.619Z,71.40
2017-06-17T04:27:48.021Z,70.30
2017-06-17T04:30:15.214Z,69.30
2017-06-17T04:32:41.814Z,69.20
2017-06-17T04:35:08.258Z,68.50
2017-06-17T04:37:34.692Z,68.10
2017-06-17T04:40:01.158Z,69.00
2017-06-17T04:42:27.597Z,70.30
2017-06-17T04:44:54.137Z,70.00
2017-06-17T04:47:20.579Z,70.20
2017-06-17T04:49:47.153Z,70.90
2017-06-17T04:52:14.461Z,71.60
2017-06-17T04:54:40.940Z,71.60
2017-06-17T04:57:08.140Z,72.40
2017-06-17T04:59:34.637Z,72.20
2017-06-17T05:02:01.108Z,72.20
2017-06-17T05:04:27.601Z,72.20
2017-06-17T05:06:54.082Z,72.90
2017-06-17T05:09:20.561Z,72.60
2017-06-17T05:11:47.147Z,72.90
2017-06-17T05:14:13.594Z,73.20
2017-06-17T05:16:40.161Z,73.10
2017-06-17T05:19:06.622Z,73.10
2017-06-17T05:21:33.107Z,73.30
2017-06-17T05:23:59.548Z,72.90
2017-06-17T05:26:25.977Z,72.70
2017-06-17T05:28:53.172Z,72.90
2017-06-17T05:31:19.578Z,72.80
2017-06-17T05:33:46.000Z,72.80
2017-06-17T05:36:13.221Z,70.90
2017-06-17T05:38:39.785Z,70.90
2017-06-17T05:41:06.932Z,69.70
2017-06-17T05:43:33.435Z,69.50
2017-06-17T05:45:59.850Z,69.10
2017-06-17T05:48:26.320Z,68.70
2017-06-17T05:50:52.765Z,67.90
2017-06-17T05:53:19.917Z,68.60
2017-06-17T05:55:47.122Z,68.20
2017-06-17T05:58:14.537Z,68.10
2017-06-17T06:00:47.948Z,67.50
2017-06-17T06:03:21.396Z,66.00
2017-06-17T06:05:47.812Z,66.50
2017-06-17T06:08:14.244Z,65.90
2017-06-17T06:10:40.714Z,65.50
2017-06-17T06:13:07.904Z,62.70
2017-06-17T06:15:34.367Z,62.00
2017-06-17T06:18:00.988Z,62.20
2017-06-17T06:20:27.374Z,61.70
2017-06-17T06:22:53.789Z,60.00
2017-06-17T06:25:20.227Z,59.50
2017-06-17T06:27:47.517Z,59.20
2017-06-17T06:30:13.997Z,59.00
2017-06-17T06:32:40.475Z,58.30
2017-06-17T06:35:06.923Z,57.30
2017-06-17T06:37:33.416Z,56.60
2017-06-17T06:40:01.178Z,55.70
2017-06-17T06:42:27.595Z,55.70
2017-06-17T06:44:54.056Z,55.80
2017-06-17T06:47:20.644Z,55.60
2017-06-17T06:49:47.073Z,56.00
2017-06-17T06:52:14.168Z,55.90
2017-06-17T06:54:48.314Z,55.10
2017-06-17T06:57:14.783Z,55.10
2017-06-17T06:59:41.449Z,55.30
2017-06-17T07:02:08.173Z,54.90
2017-06-17T07:04:34.647Z,53.90
2017-06-17T07:07:01.114Z,55.00
2017-06-17T07:09:27.539Z,53.50
2017-06-17T07:11:53.981Z,53.70
2017-06-17T07:14:20.413Z,54.30
2017-06-17T07:16:46.902Z,52.80
2017-06-17T07:19:13.392Z,51.80
2017-06-17T07:21:39.818Z,52.90
2017-06-17T07:24:06.295Z,52.50
2017-06-17T07:26:32.720Z,52.90
2017-06-17T07:28:59.942Z,51.60
2017-06-17T07:31:26.562Z,51.60
2017-06-17T07:33:53.106Z,50.90
2017-06-17T07:36:19.618Z,51.50
2017-06-17T07:38:46.141Z,50.60
2017-06-17T07:41:12.724Z,50.30
2017-06-17T07:43:39.144Z,51.00
2017-06-17T07:46:05.612Z,52.10
2017-06-17T07:48:32.040Z,53.10
2017-06-17T07:50:58.817Z,51.20
2017-06-17T07:53:25.289Z,50.30
2017-06-17T07:55:51.775Z,47.30
2017-06-17T07:58:18.372Z,46.40
2017-06-17T08:00:44.998Z,46.80
2017-06-17T08:03:11.439Z,47.00
2017-06-17T08:05:37.857Z,47.40
2017-06-17T08:08:04.587Z,48.10
2017-06-17T08:10:31.024Z,48.90
2017-06-17T08:12:57.479Z,48.10
2017-06-17T08:15:23.955Z,49.90
2017-06-17T08:17:50.407Z,47.90
2017-06-17T08:20:16.846Z,46.50
2017-06-17T08:22:43.314Z,45.40
2017-06-17T08:25:09.788Z,42.20
2017-06-17T08:27:36.292Z,42.10
2017-06-17T08:30:02.858Z,42.80
2017-06-17T08:32:29.277Z,42.60
2017-06-17T08:34:56.509Z,40.90
2017-06-17T08:37:23.468Z,40.80
2017-06-17T08:39:49.974Z,39.90
2017-06-17T08:42:16.392Z,39.00
2017-06-17T08:44:43.426Z,39.40
2017-06-17T08:47:09.846Z,39.90
2017-06-17T08:49:36.414Z,39.60
2017-06-17T08:52:02.862Z,39.50
2017-06-17T08:54:29.287Z,40.80
2017-06-17T08:56:55.695Z,40.90
2017-06-17T08:59:22.184Z,38.20
2017-06-17T09:01:49.356Z,37.30
2017-06-17T09:04:15.813Z,37.30
2017-06-17T09:06:42.348Z,36.80
2017-06-17T09:09:09.429Z,37.10
2017-06-17T09:11:42.892Z,36.40
2017-06-17T09:14:09.305Z,36.30
2017-06-17T09:16:35.777Z,35.50
2017-06-17T09:19:02.210Z,34.60
2017-06-17T09:21:28.745Z,35.20
2017-06-17T09:23:55.232Z,35.40
2017-06-17T09:26:28.811Z,35.70
2017-06-17T09:28:56.078Z,36.10
2017-06-17T09:31:22.614Z,35.90
2017-06-17T09:33:49.075Z,36.20
2017-06-17T09:36:15.488Z,36.80
2017-06-17T09:38:50.057Z,36.60
2017-06-17T09:41:16.492Z,34.60
2017-06-17T09:43:43.897Z,33.70
2017-06-17T09:46:10.360Z,33.70
2017-06-17T09:48:36.785Z,34.30
2017-06-17T09:51:03.372Z,33.10
2017-06-17T09:53:30.596Z,33.70
2017-06-17T09:55:57.041Z,33.10
2017-06-17T09:58:23.466Z,33.70
2017-06-17T10:00:49.889Z,31.30
2017-06-17T10:03:16.334Z,25.10
2017-06-17T10:05:43.109Z,20.90
2017-06-17T10:08:09.582Z,18.60
2017-06-17T10:10:36.014Z,16.50
2017-06-17T10:13:02.542Z,16.60
2017-06-17T10:15:29.004Z,19.60
2017-06-17T10:17:55.425Z,22.70
2017-06-17T10:20:22.158Z,24.60
2017-06-17T10:22:48.631Z,25.20
2017-06-17T10:25:16.033Z,25.10
2017-06-17T10:27:42.486Z,26.90
2017-06-17T10:30:08.935Z,22.90
2017-06-17T10:32:35.521Z,22.20
2017-06-17T10:35:01.963Z,20.40
2017-06-17T10:37:28.617Z,19.80
2017-06-17T10:39:55.079Z,16.10
2017-06-17T10:42:21.552Z,15.20
2017-06-17T10:44:48.054Z,16.80
2017-06-17T10:47:14.752Z,14.60
2017-06-17T10:49:41.223Z,19.70
2017-06-17T10:52:07.802Z,19.10
2017-06-17T10:54:34.211Z,21.90
2017-06-17T10:57:01.750Z,24.90
2017-06-17T10:59:28.371Z,24.80
2017-06-17T11:01:54.989Z,19.20
2017-06-17T11:04:22.262Z,16.70
2017-06-17T11:06:49.774Z,18.50
2017-06-17T11:09:16.201Z,19.20
2017-06-17T11:11:42.714Z,18.00
2017-06-17T11:14:09.176Z,18.30
2017-06-17T11:16:35.607Z,13.70
2017-06-17T11:19:02.072Z,15.60
2017-06-17T11:21:28.575Z,13.20
2017-06-17T11:23:55.040Z,10.70
2017-06-17T11:26:21.672Z,12.30
2017-06-17T11:28:48.165Z,16.00
2017-06-17T11:31:15.258Z,18.00
2017-06-17T11:33:41.657Z,18.40
2017-06-17T11:36:08.148Z,20.00
2017-06-17T11:38:34.542Z,21.60
2017-06-17T11:41:00.938Z,23.10
2017-06-17T11:43:28.436Z,26.20
2017-06-17T11:45:54.876Z,26.10
2017-06-17T11:48:21.317Z,28.30
2017-06-17T11:50:47.807Z,27.40
2017-06-17T11:53:21.158Z,27.40
2017-06-17T11:55:47.701Z,27.30
2017-06-17T11:58:14.320Z,22.80
2017-06-17T12:00:41.150Z,19.20
2017-06-17T12:03:07.714Z,18.00
2017-06-17T12:05:35.205Z,18.30
2017-06-17T12:08:01.641Z,20.60
2017-06-17T12:10:28.122Z,22.00
2017-06-17T12:12:55.277Z,24.60
2017-06-17T12:15:21.690Z,25.60
2017-06-17T12:17:48.206Z,27.00
2017-06-17T12:20:14.666Z,27.10
2017-06-17T12:22:41.130Z,27.30
2017-06-17T12:25:07.570Z,28.10
2017-06-17T12:27:34.749Z,29.10
2017-06-17T12:30:01.182Z,29.00
2017-06-17T12:32:27.821Z,30.70
2017-06-17T12:34:54.428Z,31.20
2017-06-17T12:37:20.938Z,31.40
2017-06-17T12:39:47.512Z,31.10
2017-06-17T12:42:14.026Z,31.00
2017-06-17T12:44:40.774Z,32.60
2017-06-17T12:47:08.016Z,32.10
2017-06-17T12:49:34.429Z,32.10
2017-06-17T12:52:00.896Z,30.40
2017-06-17T12:54:27.558Z,31.60
2017-06-17T12:56:54.741Z,31.10
2017-06-17T12:59:21.164Z,30.90
2017-06-17T13:01:47.698Z,30.00
2017-06-17T13:04:14.205Z,30.10
2017-06-17T13:06:40.643Z,30.20
2017-06-17T13:09:07.300Z,31.80
2017-06-17T13:11:33.803Z,31.70
2017-06-17T13:14:00.215Z,30.00
2017-06-17T13:16:26.619Z,31.00
2017-06-17T13:18:53.124Z,30.70
2017-06-17T13:21:19.541Z,31.80
2017-06-17T13:23:45.975Z,31.90
2017-06-17T13:26:12.559Z,31.50
2017-06-17T13:28:38.938Z,31.50
2017-06-17T13:31:06.124Z,31.30
2017-06-17T13:33:32.758Z,31.30
2017-06-17T13:35:59.183Z,31.70
2017-06-17T13:38:25.593Z,32.50
2017-06-17T13:40:52.056Z,32.40
2017-06-17T13:43:19.282Z,32.50
2017-06-17T13:45:45.759Z,32.20
2017-06-17T13:48:12.420Z,31.00
2017-06-17T13:50:46.717Z,31.60
2017-06-17T13:53:13.368Z,31.60
2017-06-17T13:55:40.613Z,32.30
2017-06-17T13:58:07.316Z,31.70
2017-06-17T14:00:33.756Z,31.20
2017-06-17T14:03:00.191Z,31.20
2017-06-17T14:05:26.623Z,31.10
2017-06-17T14:07:53.183Z,31.20
2017-06-17T14:10:19.690Z,30.50
2017-06-17T14:12:46.122Z,31.50
2017-06-17T14:15:12.857Z,32.80
2017-06-17T14:17:39.341Z,32.60
2017-06-17T14:20:06.523Z,32.90
2017-06-17T14:22:32.976Z,32.70
2017-06-17T14:24:59.406Z,32.40
2017-06-17T14:27:25.848Z,32.40
2017-06-17T14:29:52.313Z,33.10
2017-06-17T14:32:18.812Z,33.40
2017-06-17T14:34:45.261Z,33.10
2017-06-17T14:37:11.649Z,32.80
2017-06-17T14:39:38.114Z,33.20
2017-06-17T14:42:04.549Z,31.80
2017-06-17T14:44:30.988Z,32.50
2017-06-17T14:46:57.386Z,32.90
2017-06-17T14:49:23.782Z,33.00
2017-06-17T14:51:50.945Z,35.70
2017-06-17T14:54:18.159Z,36.50
2017-06-17T14:56:45.010Z,36.40
2017-06-17T14:59:11.411Z,37.90
2017-06-17T15:01:37.807Z,40.10
2017-06-17T15:04:04.238Z,41.80
2017-06-17T15:06:30.620Z,42.50
2017-06-17T15:08:57.022Z,42.90
2017-06-17T15:11:23.467Z,44.10
2017-06-17T15:13:49.868Z,45.80
2017-06-17T15:16:16.464Z,46.60
2017-06-17T15:18:42.938Z,46.90
2017-06-17T15:21:09.352Z,48.00
2017-06-17T15:23:36.558Z,49.40
2017-06-17T15:26:03.082Z,49.40
2017-06-17T15:28:29.490Z,49.40
2017-06-17T15:30:55.874Z,49.20
2017-06-17T15:33:22.352Z,49.40
2017-06-17T15:35:48.796Z,47.20
2017-06-17T15:38:15.757Z,46.00
2017-06-17T15:40:42.249Z,47.40
2017-06-17T15:43:09.399Z,47.30
2017-06-17T15:45:35.873Z,47.20
2017-06-17T15:48:02.462Z,48.70
2017-06-17T15:50:29.769Z,49.60
2017-06-17T15:52:56.230Z,49.40
2017-06-17T15:55:22.804Z,50.70
2017-06-17T15:57:49.369Z,50.20
2017-06-17T16:00:16.367Z,49.80
2017-06-17T16:02:43.527Z,49.50
2017-06-17T16:05:10.056Z,50.20
2017-06-17T16:07:37.355Z,49.70
2017-06-17T16:10:03.825Z,49.60
2017-06-17T16:12:31.025Z,49.70
2017-06-17T16:14:57.447Z,49.70
2017-06-17T16:17:23.895Z,48.60
2017-06-17T16:19:50.360Z,49.40
2017-06-17T16:22:16.779Z,48.80
2017-06-17T16:24:46.255Z,49.00
2017-06-17T16:27:13.185Z,48.50
2017-06-17T16:29:48.842Z,49.90
2017-06-17T16:32:15.434Z,50.00
2017-06-17T16:34:44.064Z,51.30
2017-06-17T16:37:12.546Z,51.80
2017-06-17T16:39:39.624Z,51.80
2017-06-17T16:42:06.048Z,51.70
2017-06-17T16:44:32.538Z,52.20
2017-06-17T16:46:59.727Z,53.00
2017-06-17T16:49:26.127Z,52.90
2017-06-17T16:51:52.620Z,52.70
2017-06-17T16:54:19.058Z,52.60
2017-06-17T16:56:45.483Z,52.40
2017-06-17T16:59:15.886Z,53.00
2017-06-17T17:01:42.291Z,53.90
2017-06-17T17:04:08.890Z,54.90
2017-06-17T17:06:36.129Z,56.00
2017-06-17T17:09:02.750Z,55.50
2017-06-17T17:11:29.514Z,55.80
2017-06-17T17:13:55.951Z,56.40
2017-06-17T17:16:22.512Z,57.50
2017-06-17T17:19:03.322Z,56.50
2017-06-17T17:21:29.723Z,56.80
2017-06-17T17:23:57.004Z,57.30
2017-06-17T17:26:23.466Z,57.30
2017-06-17T17:28:49.872Z,57.80
2017-06-17T17:31:16.734Z,57.90
2017-06-17T17:33:43.197Z,58.60
2017-06-17T17:36:10.390Z,59.00
2017-06-17T17:38:36.861Z,58.90
2017-06-17T17:41:03.436Z,60.00
2017-06-17T17:43:29.904Z,60.30
2017-06-17T17:45:57.173Z,60.60
2017-06-17T17:48:23.797Z,61.20
2017-06-17T17:50:50.198Z,61.40
2017-06-17T17:53:21.742Z,61.80
2017-06-17T17:55:48.256Z,61.50
2017-06-17T17:58:15.649Z,63.30
2017-06-17T18:00:42.142Z,63.10
2017-06-17T18:03:09.432Z,64.50
2017-06-17T18:05:35.893Z,64.50
2017-06-17T18:08:02.300Z,63.80
2017-06-17T18:10:28.763Z,64.30
2017-06-17T18:12:55.204Z,65.00
2017-06-17T18:15:21.648Z,65.20
2017-06-17T18:17:48.776Z,65.30
2017-06-17T18:20:15.209Z,66.00
2017-06-17T18:22:41.719Z,67.00
2017-06-17T18:25:08.227Z,67.40
2017-06-17T18:27:34.711Z,66.70
2017-06-17T18:30:01.262Z,66.70
2017-06-17T18:32:27.853Z,66.60
2017-06-17T18:34:54.353Z,66.80
2017-06-17T18:37:21.620Z,66.80
2017-06-17T18:39:48.101Z,66.70
2017-06-17T18:42:14.842Z,66.90
2017-06-17T18:44:41.296Z,67.50
2017-06-17T18:47:07.926Z,67.40
2017-06-17T18:49:34.625Z,67.30
2017-06-17T18:52:01.080Z,67.50
2017-06-17T18:54:27.625Z,67.60
2017-06-17T18:56:54.357Z,67.80
2017-06-17T18:59:20.798Z,67.70
2017-06-17T19:01:47.432Z,67.70
2017-06-17T19:04:13.904Z,67.50
2017-06-17T19:06:40.537Z,66.80
2017-06-17T19:09:07.245Z,68.00
2017-06-17T19:11:33.721Z,67.50
2017-06-17T19:14:00.158Z,67.50
2017-06-17T19:16:26.930Z,67.60
2017-06-17T19:18:53.707Z,67.70
2017-06-17T19:21:20.194Z,67.90
2017-06-17T19:23:46.676Z,67.50
2017-06-17T19:26:13.367Z,67.10
2017-06-17T19:28:45.643Z,67.80
2017-06-17T19:31:12.448Z,67.70
2017-06-17T19:33:39.786Z,67.90
2017-06-17T19:36:06.240Z,67.40
2017-06-17T19:38:32.909Z,66.70
2017-06-17T19:40:59.573Z,65.30
2017-06-17T19:43:27.008Z,66.10
2017-06-17T19:45:56.500Z,65.80
2017-06-17T19:48:30.337Z,66.50
2017-06-17T19:50:56.903Z,65.80
2017-06-17T19:53:24.319Z,67.10
2017-06-17T19:55:50.877Z,67.10
2017-06-17T19:58:17.360Z,67.10
2017-06-17T20:00:43.790Z,67.20
2017-06-17T20:03:10.828Z,69.10
2017-06-17T20:05:37.320Z,68.40
2017-06-17T20:08:03.787Z,67.80
2017-06-17T20:10:30.333Z,68.40
2017-06-17T20:12:56.876Z,67.50
2017-06-17T20:15:23.417Z,68.80
2017-06-17T20:17:51.449Z,67.90
2017-06-17T20:20:18.816Z,68.10
2017-06-17T20:22:46.986Z,66.90
2017-06-17T20:25:14.160Z,68.10
2017-06-17T20:27:40.706Z,68.10
2017-06-17T20:30:07.581Z,67.90
2017-06-17T20:32:34.035Z,67.10
2017-06-17T20:35:01.948Z,68.00
2017-06-17T20:37:28.588Z,67.80
2017-06-17T20:39:55.297Z,67.50
2017-06-17T20:42:28.907Z,67.30
2017-06-17T20:44:55.575Z,67.40
2017-06-17T20:47:22.054Z,68.10
2017-06-17T20:49:49.359Z,67.90
2017-06-17T20:52:16.412Z,67.90
2017-06-17T20:54:43.067Z,68.80
2017-06-17T20:57:40.423Z,69.10
2017-06-17T21:00:07.422Z,68.40
2017-06-17T21:02:34.940Z,68.60
2017-06-17T21:05:01.513Z,68.70
2017-06-17T21:07:28.010Z,68.30
2017-06-17T21:09:54.542Z,67.10
2017-06-17T21:12:21.069Z,67.80
2017-06-17T21:14:47.604Z,69.10
2017-06-17T21:17:14.066Z,69.00
2017-06-17T21:19:40.674Z,70.00
2017-06-17T21:22:09.905Z,71.50
2017-06-17T21:24:38.099Z,72.20
2017-06-17T21:27:04.586Z,72.10
2017-06-17T21:29:31.053Z,71.60
2017-06-17T21:31:57.569Z,71.00
2017-06-17T21:34:24.917Z,71.00
2017-06-17T21:36:51.417Z,71.00
2017-06-17T21:39:17.954Z,70.60
2017-06-17T21:41:44.405Z,71.30
2017-06-17T21:44:10.963Z,69.70
2017-06-17T21:46:38.191Z,69.40
2017-06-17T21:49:04.649Z,69.60
2017-06-17T21:51:31.790Z,68.20
2017-06-17T21:54:00.344Z,68.20
2017-06-17T21:56:26.774Z,68.00
2017-06-17T21:58:53.260Z,68.40
2017-06-17T22:01:19.704Z,67.80
2017-06-17T22:03:46.200Z,67.70
2017-06-17T22:06:13.036Z,67.50
2017-06-17T22:08:39.496Z,67.60
2017-06-17T22:11:13.044Z,66.70
2017-06-17T22:13:39.477Z,65.60
2017-06-17T22:16:05.888Z,65.90
2017-06-17T22:18:33.334Z,65.80
2017-06-17T22:21:00.724Z,65.60
2017-06-17T22:23:35.689Z,64.90
2017-06-17T22:26:02.128Z,64.80
2017-06-17T22:28:29.879Z,64.20
2017-06-17T22:30:56.354Z,64.40
2017-06-17T22:33:23.645Z,64.00
2017-06-17T22:35:57.093Z,63.40
2017-06-17T22:38:24.191Z,63.50
2017-06-17T22:40:51.398Z,64.10
2017-06-17T22:43:18.729Z,64.10
2017-06-17T22:45:48.588Z,63.30
2017-06-17T22:48:16.582Z,62.60
2017-06-17T22:50:44.574Z,62.50
2017-06-17T22:53:11.916Z,63.00
2017-06-17T22:55:39.274Z,62.90
2017-06-17T22:58:05.693Z,62.90
2017-06-17T23:00:32.278Z,62.80
2017-06-17T23:02:58.705Z,62.80
2017-06-17T23:05:25.305Z,62.50
2017-06-17T23:07:51.938Z,62.30
2017-06-17T23:10:19.484Z,62.50
2017-06-17T23:12:45.909Z,62.40
2017-06-17T23:15:18.369Z,62.80
2017-06-17T23:17:45.397Z,62.60
2017-06-17T23:20:28.033Z,62.90
2017-06-17T23:23:03.126Z,62.30
2017-06-17T23:25:29.774Z,62.40
2017-06-17T23:27:56.185Z,62.10
2017-06-17T23:30:22.616Z,62.50
2017-06-17T23:32:49.821Z,61.20
2017-06-17T23:35:16.210Z,61.20
2017-06-17T23:37:43.393Z,62.10
2017-06-17T23:40:09.843Z,61.30
2017-06-17T23:42:36.243Z,61.00
2017-06-17T23:45:02.638Z,60.60
2017-06-17T23:47:36.192Z,60.60
2017-06-17T23:50:02.728Z,61.10
2017-06-17T23:52:29.308Z,60.50
2017-06-17T23:54:55.723Z,60.40
2017-06-17T23:57:22.191Z,60.70
2017-06-17T23:59:48.933Z,61.30
